Time;durP1;ratioP1;P1;durP2;ratioP2;P2;SDS_P1;SDS_P2;PMS_P1;PMS_P2;Temp;Humidity;BMP_temperature;BMP_pressure;BME280_temperature;BME280_humidity;BME280_pressure;Samples;Min_cycle;Max_cycle;Signal;HPM_P1;HPM_P2
2021/07/17 00:00:16;;;;;;;5.30;2.53;;;;;;;20.53;100.00;95855.03;5033910;28;20198;-83
2021/07/17 00:02:43;;;;;;;5.80;3.07;;;;;;;20.61;100.00;95852.84;5033534;28;20203;-83
2021/07/17 00:05:13;;;;;;;3.77;3.00;;;;;;;20.44;100.00;95859.88;5033629;28;20227;-82
2021/07/17 00:07:48;;;;;;;4.87;2.60;;;;;;;20.35;100.00;95858.56;5033637;28;20201;-82
2021/07/17 00:10:16;;;;;;;7.40;3.10;;;;;;;20.36;100.00;95857.53;5033976;28;20339;-82
2021/07/17 00:12:45;;;;;;;4.30;3.07;;;;;;;20.36;100.00;95865.53;5033728;28;20667;-82
2021/07/17 00:15:14;;;;;;;4.47;2.93;;;;;;;20.30;100.00;95859.28;5033605;28;20195;-83
2021/07/17 00:17:41;;;;;;;4.60;2.50;;;;;;;20.29;100.00;95859.47;5033353;28;20763;-83
2021/07/17 00:20:11;;;;;;;3.73;2.90;;;;;;;20.43;100.00;95866.22;5033409;28;20241;-82
2021/07/17 00:22:38;;;;;;;5.30;2.90;;;;;;;20.16;100.00;95866.66;5033869;28;20242;-83
2021/07/17 00:25:07;;;;;;;3.23;2.93;;;;;;;20.30;100.00;95867.28;5033035;28;20231;-82
2021/07/17 00:27:35;;;;;;;4.83;2.83;;;;;;;20.35;100.00;95862.06;5033427;28;20605;-83
2021/07/17 00:30:04;;;;;;;6.30;2.67;;;;;;;20.21;100.00;95859.81;5033149;28;20652;-82
2021/07/17 00:32:32;;;;;;;2.83;2.53;;;;;;;20.32;100.00;95864.38;5033700;28;20207;-83
2021/07/17 00:34:59;;;;;;;4.00;3.10;;;;;;;20.18;100.00;95853.91;5032876;28;20195;-83
2021/07/17 00:37:27;;;;;;;7.53;3.10;;;;;;;20.19;100.00;95863.53;5033283;28;20611;-83
2021/07/17 00:39:54;;;;;;;3.50;3.20;;;;;;;20.35;100.00;95858.56;5032915;28;20202;-83
2021/07/17 00:42:21;;;;;;;4.27;3.40;;;;;;;20.19;100.00;95858.22;5033234;28;20202;-83
2021/07/17 00:44:49;;;;;;;5.47;2.70;;;;;;;20.11;100.00;95847.84;5032628;28;20225;-83
2021/07/17 00:47:18;;;;;;;4.73;2.80;;;;;;;20.03;100.00;95848.19;5033157;28;20202;-83
2021/07/17 00:49:46;;;;;;;3.10;2.90;;;;;;;20.13;100.00;95847.63;5032685;28;20234;-83
2021/07/17 00:52:13;;;;;;;5.40;2.77;;;;;;;19.98;100.00;95842.72;5032940;28;20200;-83
2021/07/17 00:54:42;;;;;;;6.60;3.10;;;;;;;20.18;100.00;95845.88;5032724;28;20234;-83
2021/07/17 00:57:11;;;;;;;3.60;2.70;;;;;;;20.03;100.00;95842.03;5032719;28;20284;-82
2021/07/17 00:59:41;;;;;;;3.57;2.67;;;;;;;19.71;100.00;95836.97;5032651;28;20237;-82
2021/07/17 01:02:09;;;;;;;5.07;3.27;;;;;;;19.88;100.00;95827.28;5032818;28;20557;-82
2021/07/17 01:04:38;;;;;;;4.67;3.43;;;;;;;19.94;100.00;95834.34;5032233;28;20706;-82
2021/07/17 01:07:05;;;;;;;3.30;3.00;;;;;;;19.90;100.00;95832.38;5032754;28;20292;-82
2021/07/17 01:09:33;;;;;;;3.70;3.37;;;;;;;19.85;100.00;95834.94;5032532;28;20198;-82
2021/07/17 01:12:00;;;;;;;4.97;3.23;;;;;;;19.87;100.00;95825.63;5032613;28;20793;-82
2021/07/17 01:14:27;;;;;;;4.63;2.70;;;;;;;19.88;100.00;95829.09;5032462;28;20652;-82
2021/07/17 01:16:55;;;;;;;13.67;3.80;;;;;;;19.92;100.00;95816.97;5032574;28;20199;-83
2021/07/17 01:19:24;;;;;;;4.63;2.70;;;;;;;19.93;100.00;95818.59;5032295;28;20753;-82
2021/07/17 01:21:53;;;;;;;5.40;3.30;;;;;;;19.85;100.00;95800.25;5032521;28;20733;-82
2021/07/17 01:24:20;;;;;;;5.13;2.93;;;;;;;19.60;100.00;95803.84;5032136;28;20238;-83
2021/07/17 01:26:48;;;;;;;5.13;3.10;;;;;;;19.65;100.00;95805.88;5032463;28;20233;-84
2021/07/17 01:29:15;;;;;;;4.07;3.17;;;;;;;19.50;100.00;95806.25;5032192;28;20230;-83
2021/07/17 01:31:42;;;;;;;7.03;3.10;;;;;;;19.45;100.00;95796.25;5032390;28;20202;-83
2021/07/17 01:34:10;;;;;;;3.10;2.60;;;;;;;19.54;100.00;95807.44;5032095;28;20230;-82
2021/07/17 01:36:38;;;;;;;3.60;3.30;;;;;;;19.50;100.00;95806.25;5032219;28;20195;-83
2021/07/17 01:39:07;;;;;;;5.40;3.03;;;;;;;19.35;100.00;95803.97;5031647;28;20252;-82
2021/07/17 01:41:34;;;;;;;5.87;3.37;;;;;;;19.56;100.00;95797.31;5031563;28;20279;-83
2021/07/17 01:44:02;;;;;;;4.37;3.20;;;;;;;19.53;100.00;95803.09;5031532;28;20289;-83
2021/07/17 01:46:29;;;;;;;5.33;3.60;;;;;;;19.51;100.00;95794.53;5031941;28;20262;-83
2021/07/17 01:48:57;;;;;;;4.97;2.73;;;;;;;19.49;100.00;95791.28;5031933;28;20303;-82
2021/07/17 01:51:26;;;;;;;3.73;2.90;;;;;;;19.62;100.00;95788.44;5031962;28;20637;-82
2021/07/17 01:53:56;;;;;;;3.00;2.50;;;;;;;19.52;100.00;95787.34;5031678;28;20672;-82
2021/07/17 01:56:25;;;;;;;3.70;3.40;;;;;;;19.66;100.00;95799.50;5031777;28;20289;-83
2021/07/17 01:58:53;;;;;;;3.30;3.00;;;;;;;19.57;100.00;95793.66;5031812;28;20206;-83
2021/07/17 02:01:21;;;;;;;3.40;3.10;;;;;;;19.56;100.00;95786.66;5031918;28;20298;-83
2021/07/17 02:03:50;;;;;;;3.27;2.97;;;;;;;19.58;100.00;95794.47;5031676;28;20195;-83
2021/07/17 02:06:25;;;;;;;3.80;3.17;;;;;;;19.50;100.00;95798.25;5031778;28;20222;-83
2021/07/17 02:08:52;;;;;;;5.83;3.30;;;;;;;19.33;100.00;95798.06;5031697;28;20213;-82
2021/07/17 02:11:21;;;;;;;3.67;3.37;;;;;;;19.00;100.00;95795.78;5031800;28;20293;-83
2021/07/17 02:13:51;;;;;;;4.60;3.30;;;;;;;19.25;100.00;95790.38;5031875;28;20238;-82
2021/07/17 02:16:18;;;;;;;4.97;2.67;;;;;;;19.26;100.00;95786.69;5031753;28;20648;-83
2021/07/17 02:18:46;;;;;;;2.90;2.63;;;;;;;19.25;100.00;95798.34;5031369;28;20575;-83
2021/07/17 02:21:15;;;;;;;4.17;3.87;;;;;;;19.06;100.00;95794.91;5031663;28;20293;-83
2021/07/17 02:23:43;;;;;;;7.43;3.57;;;;;;;18.96;100.00;95791.97;5031466;28;20245;-83
2021/07/17 02:26:10;;;;;;;9.43;4.33;;;;;;;18.88;100.00;95790.41;5031558;28;20227;-82
2021/07/17 02:28:39;;;;;;;3.67;3.33;;;;;;;18.85;100.00;95790.03;5031546;28;20234;-83
2021/07/17 02:31:09;;;;;;;3.13;2.93;;;;;;;19.00;100.00;95793.13;5031935;28;20198;-83
2021/07/17 02:33:36;;;;;;;4.80;3.30;;;;;;;19.29;100.00;95796.88;5031406;28;20732;-83
2021/07/17 02:36:09;;;;;;;5.23;3.40;;;;;;;19.35;100.00;95793.31;5031836;28;20228;-83
2021/07/17 02:38:36;;;;;;;5.13;3.23;;;;;;;19.40;100.00;95797.97;5031143;28;20195;-83
2021/07/17 02:41:04;;;;;;;3.70;3.40;;;;;;;19.31;100.00;95794.81;5031564;28;20248;-83
2021/07/17 02:43:31;;;;;;;4.07;3.67;;;;;;;-143.59;100.00;60537.34;5031621;28;20203;-83
2021/07/17 02:45:58;;;;;;;4.03;2.80;;;;;;;-143.59;100.00;60537.34;5031200;28;20309;-83
2021/07/17 02:48:27;;;;;;;6.63;3.90;;;;;;;-143.59;100.00;60537.34;5031623;28;20199;-83
2021/07/17 02:50:54;;;;;;;4.03;3.33;;;;;;;-143.59;100.00;60537.34;5031870;28;20199;-82
2021/07/17 02:53:22;;;;;;;6.33;3.70;;;;;;;-143.59;100.00;60537.34;5032084;28;20203;-83
2021/07/17 02:55:49;;;;;;;9.43;3.70;;;;;;;-143.59;100.00;60537.34;5041040;28;20722;-82
2021/07/17 02:58:16;;;;;;;3.50;3.20;;;;;;;-143.59;100.00;60537.34;5055180;28;20593;-82
2021/07/17 03:00:43;;;;;;;9.27;3.67;;;;;;;-143.59;100.00;60537.34;5041298;28;20297;-83
2021/07/17 03:03:13;;;;;;;3.73;3.30;;;;;;;-143.59;100.00;60537.34;5043550;28;20205;-82
2021/07/17 03:05:41;;;;;;;5.40;2.90;;;;;;;-143.59;100.00;60537.34;5035047;28;20309;-81
2021/07/17 03:08:09;;;;;;;7.53;3.07;;;;;;;-143.59;100.00;60537.34;5034768;28;20713;-81
2021/07/17 03:10:37;;;;;;;3.67;2.90;;;;;;;-143.59;100.00;60537.34;5035260;28;20289;-82
2021/07/17 03:13:04;;;;;;;7.63;2.97;;;;;;;-143.59;100.00;60537.34;5034691;28;20238;-82
2021/07/17 03:15:31;;;;;;;7.20;3.60;;;;;;;-143.59;100.00;60537.34;5034917;28;20194;-82
2021/07/17 03:17:58;;;;;;;4.73;3.77;;;;;;;-143.59;100.00;60537.34;5034638;28;20283;-81
2021/07/17 03:20:26;;;;;;;11.00;4.67;;;;;;;-143.59;100.00;60537.34;5034717;28;20207;-82
2021/07/17 03:22:57;;;;;;;3.37;2.87;;;;;;;-143.59;100.00;60537.34;5034290;28;20249;-82
2021/07/17 03:25:25;;;;;;;6.77;3.60;;;;;;;-143.59;100.00;60537.34;5034596;28;20218;-81
2021/07/17 03:27:52;;;;;;;8.90;3.40;;;;;;;-143.59;100.00;60537.34;5034448;28;20230;-81
2021/07/17 03:30:20;;;;;;;5.27;3.50;;;;;;;-143.59;100.00;60537.34;5038620;28;20265;-81
2021/07/17 03:32:47;;;;;;;3.47;3.17;;;;;;;-143.59;100.00;60537.34;5047259;28;20256;-82
2021/07/17 03:35:15;;;;;;;7.40;3.63;;;;;;;-143.59;100.00;60537.34;5041483;28;20281;-82
2021/07/17 03:37:42;;;;;;;5.30;3.57;;;;;;;-143.59;100.00;60537.34;5043569;28;20245;-81
2021/07/17 03:40:13;;;;;;;6.20;4.93;;;;;;;-143.59;100.00;60537.34;5040325;28;20651;-82
2021/07/17 03:42:40;;;;;;;8.70;3.43;;;;;;;-143.59;100.00;60537.34;5042321;28;20194;-80
2021/07/17 03:45:08;;;;;;;4.00;3.63;;;;;;;-143.59;100.00;60537.34;5042770;28;20232;-80
2021/07/17 03:47:36;;;;;;;6.87;3.80;;;;;;;-143.59;100.00;60537.34;5043928;28;20282;-82
2021/07/17 03:50:04;;;;;;;4.10;3.43;;;;;;;-143.59;100.00;60537.34;5046394;28;20636;-80
2021/07/17 03:52:31;;;;;;;8.97;3.83;;;;;;;-143.59;100.00;60537.34;5046070;28;20271;-79
2021/07/17 03:54:59;;;;;;;5.47;3.30;;;;;;;-143.59;100.00;60537.34;5033484;28;20205;-79
2021/07/17 03:57:27;;;;;;;7.57;3.87;;;;;;;-143.59;100.00;60537.34;5034031;28;20199;-79
2021/07/17 03:59:55;;;;;;;3.63;3.20;;;;;;;-143.59;100.00;60537.34;5033743;28;20230;-79
2021/07/17 04:02:22;;;;;;;4.93;4.00;;;;;;;-143.59;100.00;60537.34;5033996;28;20333;-79
2021/07/17 04:04:49;;;;;;;6.60;3.53;;;;;;;-143.59;100.00;60537.34;5033014;28;20441;-78
2021/07/17 04:07:17;;;;;;;6.03;3.73;;;;;;;-143.59;100.00;60537.34;5040364;28;20257;-78
2021/07/17 04:09:44;;;;;;;3.40;3.10;;;;;;;-143.59;100.00;60537.34;5033931;28;20194;-79
2021/07/17 04:12:11;;;;;;;5.50;3.83;;;;;;;-143.59;100.00;60537.34;5041409;28;20292;-79
2021/07/17 04:14:40;;;;;;;6.90;3.50;;;;;;;-143.59;100.00;60537.34;5053349;28;20252;-79
2021/07/17 04:17:07;;;;;;;4.40;4.10;;;;;;;-143.59;100.00;60537.34;5043924;28;20238;-78
2021/07/17 04:19:34;;;;;;;5.63;3.50;;;;;;;-143.59;100.00;60537.34;5043138;28;20648;-79
2021/07/17 04:22:02;;;;;;;4.27;3.60;;;;;;;-143.59;100.00;60537.34;5033856;28;20306;-79
2021/07/17 04:24:29;;;;;;;5.57;3.60;;;;;;;-143.59;100.00;60537.34;5032898;28;20242;-79
2021/07/17 04:26:56;;;;;;;5.03;4.40;;;;;;;-143.59;100.00;60537.34;5031310;28;20230;-79
2021/07/17 04:29:24;;;;;;;6.30;3.43;;;;;;;-143.59;100.00;60537.34;5031151;28;20249;-79
2021/07/17 04:31:52;;;;;;;4.17;3.07;;;;;;;-143.59;100.00;60537.34;5031265;28;20401;-79
2021/07/17 04:34:19;;;;;;;4.30;3.87;;;;;;;-143.59;100.00;60537.34;5030867;28;20209;-79
2021/07/17 04:36:47;;;;;;;6.67;3.50;;;;;;;-143.59;100.00;60537.34;5031217;28;20289;-79
2021/07/17 04:39:14;;;;;;;4.13;3.50;;;;;;;-143.59;100.00;60537.34;5031004;28;20242;-79
2021/07/17 04:41:41;;;;;;;3.60;3.30;;;;;;;-143.59;100.00;60537.34;5031941;28;20584;-79
2021/07/17 04:44:09;;;;;;;5.57;3.37;;;;;;;-143.59;100.00;60537.34;5033055;28;20289;-79
2021/07/17 04:46:36;;;;;;;4.17;3.03;;;;;;;-143.59;100.00;60537.34;5033060;28;20704;-79
2021/07/17 04:49:05;;;;;;;5.27;3.40;;;;;;;-143.59;100.00;60537.34;5033234;28;20651;-79
2021/07/17 04:51:32;;;;;;;3.50;3.20;;;;;;;-143.59;100.00;60537.34;5033126;28;20714;-78
2021/07/17 04:53:59;;;;;;;4.30;3.90;;;;;;;-143.59;100.00;60537.34;5032614;28;20690;-79
2021/07/17 04:56:27;;;;;;;3.40;3.10;;;;;;;-143.59;100.00;60537.34;5032801;28;20673;-79
2021/07/17 04:58:54;;;;;;;3.83;3.20;;;;;;;-143.59;100.00;60537.34;5032763;28;20289;-79
2021/07/17 05:01:22;;;;;;;5.77;3.40;;;;;;;-143.59;100.00;60537.34;5033189;28;20198;-79
2021/07/17 05:03:49;;;;;;;4.60;3.20;;;;;;;-143.59;100.00;60537.34;5032417;28;20205;-79
2021/07/17 05:06:18;;;;;;;6.07;3.60;;;;;;;-143.59;100.00;60537.34;5033066;28;20249;-79
2021/07/17 05:08:45;;;;;;;3.60;3.30;;;;;;;-143.59;100.00;60537.34;5032523;28;20205;-79
2021/07/17 05:11:12;;;;;;;3.17;2.93;;;;;;;-143.59;100.00;60537.34;5032427;28;20264;-79
2021/07/17 05:13:43;;;;;;;5.57;3.37;;;;;;;-143.59;100.00;60537.34;5032772;28;20655;-79
2021/07/17 05:16:10;;;;;;;3.80;3.40;;;;;;;-143.59;100.00;60537.34;5032573;28;20593;-79
2021/07/17 05:18:37;;;;;;;4.70;3.20;;;;;;;-143.59;100.00;60537.34;5031819;28;20198;-79
2021/07/17 05:21:04;;;;;;;5.93;3.20;;;;;;;-143.59;100.00;60537.34;5032830;28;20206;-79
2021/07/17 05:23:33;;;;;;;3.47;3.17;;;;;;;-143.59;100.00;60537.34;5032143;28;20194;-79
2021/07/17 05:26:01;;;;;;;8.30;3.67;;;;;;;-143.59;100.00;60537.34;5032360;28;20284;-79
2021/07/17 05:28:28;;;;;;;4.30;3.37;;;;;;;-143.59;100.00;60537.34;5032571;28;20222;-79
2021/07/17 05:30:55;;;;;;;5.73;3.13;;;;;;;-143.59;100.00;60537.34;5032409;28;20202;-79
2021/07/17 05:33:23;;;;;;;13.33;4.90;;;;;;;-143.59;100.00;60537.34;5031867;28;20234;-79
2021/07/17 05:35:50;;;;;;;4.60;3.57;;;;;;;-143.59;100.00;60537.34;5032287;28;20741;-79
2021/07/17 05:38:17;;;;;;;6.03;3.83;;;;;;;-143.59;100.00;60537.34;5032057;28;20230;-79
2021/07/17 05:40:46;;;;;;;7.87;3.53;;;;;;;-143.59;100.00;60537.34;5032243;28;20587;-79
2021/07/17 05:43:13;;;;;;;6.97;3.90;;;;;;;-143.59;100.00;60537.34;5031726;28;20194;-79
2021/07/17 05:45:41;;;;;;;6.47;3.60;;;;;;;-143.59;100.00;60537.34;5032327;28;20228;-79
2021/07/17 05:48:08;;;;;;;6.07;4.20;;;;;;;-143.59;100.00;60537.34;5032245;28;20209;-79
2021/07/17 05:50:36;;;;;;;4.10;3.60;;;;;;;-143.59;100.00;60537.34;5031841;28;20195;-79
2021/07/17 05:53:08;;;;;;;5.70;3.50;;;;;;;-143.59;100.00;60537.34;5032150;28;20206;-79
2021/07/17 05:55:35;;;;;;;6.60;3.77;;;;;;;-143.59;100.00;60537.34;5032077;28;20707;-79
2021/07/17 05:58:04;;;;;;;10.77;3.97;;;;;;;-143.59;100.00;60537.34;5031548;28;20596;-79
2021/07/17 06:00:31;;;;;;;4.40;3.20;;;;;;;-143.59;100.00;60537.34;5031953;28;20238;-79
2021/07/17 06:02:59;;;;;;;6.80;3.30;;;;;;;-143.59;100.00;60537.34;5031743;28;20208;-79
2021/07/17 06:05:26;;;;;;;7.57;3.87;;;;;;;-143.59;100.00;60537.34;5031920;28;20226;-79
2021/07/17 06:07:53;;;;;;;5.67;3.87;;;;;;;-143.59;100.00;60537.34;5031595;28;20262;-80
2021/07/17 06:10:21;;;;;;;7.30;3.53;;;;;;;-143.59;100.00;60537.34;5031696;28;20238;-80
2021/07/17 06:12:48;;;;;;;5.43;3.77;;;;;;;-143.59;100.00;60537.34;5031764;28;20289;-80
2021/07/17 06:15:17;;;;;;;3.93;3.50;;;;;;;-143.59;100.00;60537.34;5031726;28;20202;-79
2021/07/17 06:17:44;;;;;;;6.77;4.43;;;;;;;-143.59;100.00;60537.34;5032033;28;20245;-79
2021/07/17 06:20:12;;;;;;;5.20;3.20;;;;;;;-143.59;100.00;60537.34;5031481;28;20230;-79
2021/07/17 06:22:40;;;;;;;7.03;3.33;;;;;;;-143.59;100.00;60537.34;5031715;28;20260;-79
2021/07/17 06:25:09;;;;;;;4.17;3.73;;;;;;;-143.59;100.00;60537.34;5031576;28;20203;-79
2021/07/17 06:27:36;;;;;;;5.17;3.77;;;;;;;-143.59;100.00;60537.34;5031613;28;20227;-79
2021/07/17 06:30:04;;;;;;;3.47;2.77;;;;;;;-143.59;100.00;60537.34;5035399;28;20634;-80
2021/07/17 06:32:33;;;;;;;10.20;3.60;;;;;;;-143.59;100.00;60537.34;5035659;28;20289;-80
2021/07/17 06:35:01;;;;;;;3.57;3.00;;;;;;;-143.59;100.00;60537.34;5035799;28;20280;-80
2021/07/17 06:37:28;;;;;;;6.50;3.33;;;;;;;-143.59;100.00;60537.34;5035342;28;20290;-80
2021/07/17 06:39:55;;;;;;;4.10;3.13;;;;;;;-143.59;100.00;60537.34;5035402;28;20205;-80
2021/07/17 06:42:23;;;;;;;5.50;3.35;;;;;;;-143.59;100.00;60537.34;5035845;28;20268;-80
2021/07/17 06:44:50;;;;;;;4.00;3.43;;;;;;;-143.59;100.00;60537.34;5035305;28;20241;-80
2021/07/17 06:47:17;;;;;;;7.70;3.20;;;;;;;-143.59;100.00;60537.34;5035086;28;20226;-80
2021/07/17 06:49:46;;;;;;;3.33;2.97;;;;;;;-143.59;100.00;60537.34;5035189;28;20198;-80
2021/07/17 06:52:13;;;;;;;9.20;3.40;;;;;;;-143.59;100.00;60537.34;5035337;28;20204;-80
2021/07/17 06:54:41;;;;;;;4.63;3.35;;;;;;;-143.59;100.00;60537.34;5035076;28;20242;-80
2021/07/17 06:57:08;;;;;;;7.85;3.22;;;;;;;-143.59;100.00;60537.34;5034881;28;20318;-80
2021/07/17 06:59:35;;;;;;;8.27;4.00;;;;;;;-143.59;100.00;60537.34;5035037;28;20281;-80
2021/07/17 07:02:03;;;;;;;5.97;3.55;;;;;;;-143.59;100.00;60537.34;5035138;28;20202;-80
2021/07/17 07:04:30;;;;;;;9.15;3.75;;;;;;;-143.59;100.00;60537.34;5034915;28;20198;-80
2021/07/17 07:06:59;;;;;;;8.77;3.78;;;;;;;-143.59;100.00;60537.34;5035005;28;20222;-80
2021/07/17 07:09:26;;;;;;;5.50;3.55;;;;;;;-143.59;100.00;60537.34;5034623;28;20234;-80
2021/07/17 07:11:53;;;;;;;8.55;2.72;;;;;;;-143.59;100.00;60537.34;5034968;28;20667;-80
2021/07/17 07:14:22;;;;;;;10.02;3.03;;;;;;;-143.59;100.00;60537.34;5035009;28;20210;-81
2021/07/17 07:16:49;;;;;;;6.53;2.78;;;;;;;-143.59;100.00;60537.34;5034950;28;20273;-80
2021/07/17 07:19:16;;;;;;;3.63;3.20;;;;;;;-143.59;100.00;60537.34;5034661;28;20245;-80
2021/07/17 07:21:44;;;;;;;5.40;3.17;;;;;;;-143.59;100.00;60537.34;5034840;28;20205;-81
2021/07/17 07:24:12;;;;;;;9.32;3.22;;;;;;;-143.59;100.00;60537.34;5034342;28;20202;-81
2021/07/17 07:26:40;;;;;;;4.45;3.20;;;;;;;-143.59;100.00;60537.34;5034757;28;20704;-81
2021/07/17 07:29:07;;;;;;;3.88;3.50;;;;;;;-143.59;100.00;60537.34;5034537;28;20199;-81
2021/07/17 07:31:34;;;;;;;8.43;3.80;;;;;;;-143.59;100.00;60537.34;5034342;28;20205;-80
2021/07/17 07:34:02;;;;;;;5.15;3.58;;;;;;;-143.59;100.00;60537.34;5034703;28;20598;-80
2021/07/17 07:36:29;;;;;;;6.22;4.60;;;;;;;-143.59;100.00;60537.34;5034570;28;20294;-81
2021/07/17 07:38:56;;;;;;;5.03;3.65;;;;;;;-143.59;100.00;60537.34;5034595;28;20198;-81
2021/07/17 07:41:25;;;;;;;5.25;3.58;;;;;;;-143.59;100.00;60537.34;5033354;28;20209;-81
2021/07/17 07:43:52;;;;;;;4.35;3.63;;;;;;;-143.59;100.00;60537.34;5033957;28;20203;-81
2021/07/17 07:46:21;;;;;;;7.05;3.10;;;;;;;-143.59;100.00;60537.34;5034245;28;20205;-81
2021/07/17 07:48:48;;;;;;;3.78;3.03;;;;;;;-143.59;100.00;60537.34;5034089;28;20238;-81
2021/07/17 07:51:15;;;;;;;6.70;3.15;;;;;;;-143.59;100.00;60537.34;5034022;28;20682;-81
2021/07/17 07:53:43;;;;;;;5.65;3.00;;;;;;;-143.59;100.00;60537.34;5033981;28;20669;-81
2021/07/17 07:56:10;;;;;;;5.90;2.80;;;;;;;-143.59;100.00;60537.34;5033981;28;20238;-81
2021/07/17 07:58:39;;;;;;;6.75;2.70;;;;;;;-143.59;100.00;60537.34;5033986;28;20235;-81
2021/07/17 08:01:06;;;;;;;5.43;3.53;;;;;;;-143.59;100.00;60537.34;5033822;28;20374;-81
2021/07/17 08:03:34;;;;;;;3.30;2.97;;;;;;;-143.59;100.00;60537.34;5033792;28;20242;-80
2021/07/17 08:06:01;;;;;;;3.58;3.03;;;;;;;-143.59;100.00;60537.34;5033963;28;20210;-81
2021/07/17 08:08:29;;;;;;;5.68;3.05;;;;;;;-143.59;100.00;60537.34;5033406;28;20596;-81
2021/07/17 08:10:56;;;;;;;5.72;3.35;;;;;;;-143.59;100.00;60537.34;5033946;28;20195;-81
2021/07/17 08:13:23;;;;;;;4.93;3.20;;;;;;;-143.59;100.00;60537.34;5033933;28;20654;-81
2021/07/17 08:15:53;;;;;;;4.10;3.20;;;;;;;-143.59;100.00;60537.34;5034115;28;20226;-81
2021/07/17 08:18:21;;;;;;;5.53;3.17;;;;;;;-143.59;100.00;60537.34;5033317;28;20286;-81
2021/07/17 08:20:48;;;;;;;8.70;3.00;;;;;;;-143.59;100.00;60537.34;5033679;28;20191;-81
2021/07/17 08:23:15;;;;;;;3.42;3.13;;;;;;;-143.59;100.00;60537.34;5033458;28;20237;-81
2021/07/17 08:25:43;;;;;;;3.80;3.15;;;;;;;-143.59;100.00;60537.34;5033368;28;20293;-81
2021/07/17 08:28:11;;;;;;;6.78;3.15;;;;;;;-143.59;100.00;60537.34;5033242;28;20321;-81
2021/07/17 08:30:38;;;;;;;8.15;3.33;;;;;;;-143.59;100.00;60537.34;5033803;28;20202;-82
2021/07/17 08:33:08;;;;;;;3.72;3.13;;;;;;;-143.59;100.00;60537.34;5033550;28;20221;-81
2021/07/17 08:35:35;;;;;;;9.18;3.20;;;;;;;-143.59;100.00;60537.34;5033447;28;20198;-81
2021/07/17 08:38:03;;;;;;;5.18;3.45;;;;;;;-143.59;100.00;60537.34;5033005;28;20263;-81
2021/07/17 08:40:32;;;;;;;5.45;3.47;;;;;;;-143.59;100.00;60537.34;5033364;28;20195;-81
2021/07/17 08:42:59;;;;;;;5.82;3.65;;;;;;;-143.59;100.00;60537.34;5033086;28;20202;-81
2021/07/17 08:45:26;;;;;;;3.72;3.20;;;;;;;-143.59;100.00;60537.34;5033536;28;20431;-81
2021/07/17 08:47:55;;;;;;;4.53;3.53;;;;;;;-143.59;100.00;60537.34;5033026;28;20757;-81
2021/07/17 08:50:26;;;;;;;7.13;3.38;;;;;;;-143.59;100.00;60537.34;5033421;28;20269;-81
2021/07/17 08:52:55;;;;;;;7.68;4.18;;;;;;;-143.59;100.00;60537.34;5032819;28;20193;-81
2021/07/17 08:55:24;;;;;;;3.25;2.95;;;;;;;-143.59;100.00;60537.34;5033047;28;20682;-81
2021/07/17 08:57:52;;;;;;;8.63;4.22;;;;;;;-143.59;100.00;60537.34;5033021;28;20687;-81
2021/07/17 09:00:22;;;;;;;7.95;3.53;;;;;;;-143.59;100.00;60537.34;5032942;28;20201;-81
2021/07/17 09:02:50;;;;;;;4.22;2.83;;;;;;;-143.59;100.00;60537.34;5033152;28;20244;-82
2021/07/17 09:05:22;;;;;;;6.60;3.28;;;;;;;-143.59;100.00;60537.34;5032498;28;20202;-81
2021/07/17 09:07:51;;;;;;;10.38;3.50;;;;;;;-143.59;100.00;60537.34;5032722;28;20210;-81
2021/07/17 09:10:28;;;;;;;3.90;2.88;;;;;;;-143.59;100.00;60537.34;5033000;28;20641;-81
2021/07/17 09:13:10;;;;;;;3.50;3.20;;;;;;;-143.59;100.00;60537.34;5032557;28;20195;-81
2021/07/17 09:15:39;;;;;;;18.05;4.13;;;;;;;-143.59;100.00;60537.34;5032424;28;20256;-81
2021/07/17 09:18:07;;;;;;;6.30;3.00;;;;;;;-143.59;100.00;60537.34;5032360;28;20723;-81
2021/07/17 09:20:35;;;;;;;8.32;3.05;;;;;;;-143.59;100.00;60537.34;5032842;28;20230;-82
2021/07/17 09:23:09;;;;;;;11.88;3.45;;;;;;;-143.59;100.00;60537.34;5032656;28;20648;-81
2021/07/17 09:25:39;;;;;;;3.83;3.40;;;;;;;-143.59;100.00;60537.34;5032689;28;20198;-81
2021/07/17 09:28:22;;;;;;;3.40;2.55;;;;;;;-143.59;100.00;60537.34;5032228;28;20218;-81
2021/07/17 09:30:51;;;;;;;5.10;3.40;;;;;;;-143.59;100.00;60537.34;5032372;28;20237;-81
2021/07/17 09:33:19;;;;;;;7.45;3.38;;;;;;;-143.59;100.00;60537.34;5032208;28;20202;-81
2021/07/17 09:35:48;;;;;;;8.80;3.28;;;;;;;-143.59;100.00;60537.34;5032056;28;20679;-81
2021/07/17 09:38:18;;;;;;;5.80;3.40;;;;;;;-143.59;100.00;60537.34;5032074;28;20201;-82
2021/07/17 09:40:51;;;;;;;5.20;2.80;;;;;;;-143.59;100.00;60537.34;5032285;28;20225;-81
2021/07/17 09:43:32;;;;;;;4.72;2.90;;;;;;;-143.59;100.00;60537.34;5032368;28;20186;-81
2021/07/17 09:46:00;;;;;;;4.30;2.63;;;;;;;-143.59;100.00;60537.34;5031977;28;20191;-81
2021/07/17 09:48:30;;;;;;;7.75;3.55;;;;;;;-143.59;100.00;60537.34;5032164;28;20245;-81
2021/07/17 09:50:59;;;;;;;11.48;3.85;;;;;;;-143.59;100.00;60537.34;5032079;28;20202;-81
2021/07/17 09:53:45;;;;;;;5.95;3.20;;;;;;;-143.59;100.00;60537.34;5031857;28;20203;-81
2021/07/17 09:56:14;;;;;;;5.45;2.72;;;;;;;-143.59;100.00;60537.34;5031678;28;20230;-81
2021/07/17 09:58:42;;;;;;;5.50;2.38;;;;;;;-143.59;100.00;60537.34;5032110;28;20281;-81
2021/07/17 10:01:20;;;;;;;8.73;2.80;;;;;;;-143.59;100.00;60537.34;5032010;28;20252;-81
2021/07/17 10:03:49;;;;;;;8.95;2.47;;;;;;;-143.59;100.00;60537.34;5031200;28;20245;-81
2021/07/17 10:06:43;;;;;;;3.13;2.38;;;;;;;-143.59;100.00;60537.34;5032213;28;20230;-81
2021/07/17 10:09:33;;;;;;;9.05;2.88;;;;;;;-143.59;100.00;60537.34;5031663;28;20667;-81
2021/07/17 10:12:05;;;;;;;6.93;3.58;;;;;;;-143.59;100.00;60537.34;5031948;28;20191;-81
2021/07/17 10:14:36;;;;;;;9.15;2.90;;;;;;;-143.59;100.00;60537.34;5031674;28;20639;-81
2021/07/17 10:17:06;;;;;;;4.57;2.80;;;;;;;-143.59;100.00;60537.34;5031889;28;20606;-81
2021/07/17 10:19:34;;;;;;;4.35;2.83;;;;;;;-143.59;100.00;60537.34;5031384;28;20680;-81
2021/07/17 10:22:02;;;;;;;3.08;2.72;;;;;;;-143.59;100.00;60537.34;5031799;28;20191;-82
2021/07/17 10:24:31;;;;;;;8.82;3.05;;;;;;;-143.59;100.00;60537.34;5031588;28;20195;-81
2021/07/17 10:26:59;;;;;;;5.30;3.15;;;;;;;-143.59;100.00;60537.34;5031823;28;20202;-80
2021/07/17 10:29:28;;;;;;;5.75;2.90;;;;;;;-143.59;100.00;60537.34;5031747;28;20696;-81
2021/07/17 10:31:57;;;;;;;4.85;2.50;;;;;;;-143.59;100.00;60537.34;5032026;28;20199;-81
2021/07/17 10:34:24;;;;;;;7.45;3.30;;;;;;;-143.59;100.00;60537.34;5031514;28;20585;-81
2021/07/17 10:36:57;;;;;;;5.40;3.22;;;;;;;-143.59;100.00;60537.34;5031941;28;20283;-81
2021/07/17 10:39:28;;;;;;;6.32;2.97;;;;;;;-143.59;100.00;60537.34;5031273;28;20187;-81
2021/07/17 10:41:58;;;;;;;5.82;2.63;;;;;;;-143.59;100.00;60537.34;5031679;28;20183;-81
2021/07/17 10:44:44;;;;;;;2.60;2.40;;;;;;;-143.59;100.00;60537.34;5031408;28;20672;-81
2021/07/17 10:47:12;;;;;;;4.43;2.83;;;;;;;-143.59;100.00;60537.34;5031206;28;20199;-81
2021/07/17 10:49:41;;;;;;;6.72;3.00;;;;;;;-143.59;100.00;60537.34;5031175;28;20241;-81
2021/07/17 10:52:09;;;;;;;5.05;3.00;;;;;;;-143.59;100.00;60537.34;5031513;28;20198;-81
2021/07/17 10:54:37;;;;;;;4.60;3.20;;;;;;;-143.59;100.00;60537.34;5031313;28;20257;-81
2021/07/17 10:57:07;;;;;;;6.63;3.60;;;;;;;-143.59;100.00;60537.34;5031337;28;20325;-81
2021/07/17 10:59:45;;;;;;;8.38;3.17;;;;;;;-143.59;100.00;60537.34;5031056;28;20199;-81
2021/07/17 11:02:24;;;;;;;8.57;3.35;;;;;;;-143.59;100.00;60537.34;5031521;28;20187;-81
2021/07/17 11:05:02;;;;;;;6.28;3.60;;;;;;;-143.59;100.00;60537.34;5031271;28;20190;-81
2021/07/17 11:07:35;;;;;;;8.27;3.70;;;;;;;-143.59;100.00;60537.34;5031390;28;20278;-81
2021/07/17 11:10:12;;;;;;;4.30;3.08;;;;;;;-143.59;100.00;60537.34;5031003;28;20187;-81
2021/07/17 11:12:52;;;;;;;3.63;2.88;;;;;;;-143.59;100.00;60537.34;5031452;28;20191;-81
2021/07/17 11:15:42;;;;;;;5.03;3.10;;;;;;;-143.59;100.00;60537.34;5033899;28;20240;-81
2021/07/17 11:18:35;;;;;;;3.92;3.63;;;;;;;-143.59;100.00;60537.34;5035131;28;20619;-81